Time;durP1;ratioP1;P1;durP2;ratioP2;P2;SDS_P1;SDS_P2;PMS_P1;PMS_P2;Temp;Humidity;BMP_temperature;BMP_pressure;BME280_temperature;BME280_humidity;BME280_pressure;Samples;Min_cycle;Max_cycle;Signal;HPM_P1;HPM_P2
2023/03/21 04:02:39;;;;;;;72.82;21.58;;;9.10;99.90;;;;;;6244789;22;20104;-78
2023/03/21 04:05:05;;;;;;;63.50;20.92;;;9.10;99.90;;;;;;6243982;23;20374;-78
2023/03/21 04:07:31;;;;;;;72.07;22.48;;;9.10;99.90;;;;;;6244009;23;20012;-77
2023/03/21 04:09:56;;;;;;;74.35;21.88;;;9.10;99.90;;;;;;6244079;23;20087;-78
2023/03/21 04:12:23;;;;;;;87.32;22.77;;;9.10;99.90;;;;;;6246105;22;20004;-78
2023/03/21 04:14:50;;;;;;;80.95;21.17;;;9.10;99.90;;;;;;6244056;23;20022;-77
2023/03/21 04:17:17;;;;;;;90.25;22.80;;;9.10;99.90;;;;;;6245394;23;20048;-77
2023/03/21 04:19:44;;;;;;;75.85;20.73;;;9.10;99.90;;;;;;6218629;23;20042;-77
2023/03/21 04:22:11;;;;;;;63.65;19.65;;;9.10;99.90;;;;;;6243854;22;20012;-78
2023/03/21 04:24:38;;;;;;;59.95;18.88;;;9.10;99.90;;;;;;6244148;23;20016;-77
2023/03/21 04:27:04;;;;;;;60.40;18.40;;;9.10;99.90;;;;;;6245735;22;20008;-78
2023/03/21 04:29:31;;;;;;;74.82;20.50;;;9.10;99.90;;;;;;6243836;23;20012;-78
2023/03/21 04:31:56;;;;;;;68.97;19.92;;;9.10;99.90;;;;;;6243590;22;20016;-77
2023/03/21 04:34:26;;;;;;;73.90;20.13;;;9.10;99.90;;;;;;6243798;23;20024;-77
2023/03/21 04:36:53;;;;;;;63.75;19.60;;;9.10;99.90;;;;;;6243866;23;20057;-78
2023/03/21 04:39:19;;;;;;;60.35;19.92;;;9.10;99.90;;;;;;6243864;23;20318;-78
2023/03/21 04:41:45;;;;;;;73.40;19.63;;;9.10;99.90;;;;;;6243959;22;20015;-77
2023/03/21 04:44:14;;;;;;;68.88;20.05;;;9.10;99.90;;;;;;6245354;22;20015;-78
2023/03/21 04:46:40;;;;;;;62.67;20.80;;;9.10;99.90;;;;;;6243838;23;20051;-79
2023/03/21 04:49:06;;;;;;;69.45;21.73;;;9.10;99.90;;;;;;6244013;23;20437;-78
2023/03/21 04:51:32;;;;;;;60.92;20.60;;;9.10;99.90;;;;;;6243872;22;20020;-78
2023/03/21 04:53:58;;;;;;;73.60;21.58;;;9.10;99.90;;;;;;6243734;23;20014;-78
2023/03/21 04:56:30;;;;;;;66.43;21.60;;;9.10;99.90;;;;;;6243988;23;20095;-76
2023/03/21 04:58:57;;;;;;;56.13;20.40;;;9.10;99.90;;;;;;6218509;23;20323;-79
2023/03/21 05:01:22;;;;;;;59.97;20.73;;;9.10;99.90;;;;;;6245198;22;20334;-78
2023/03/21 05:03:48;;;;;;;56.72;19.45;;;9.10;99.90;;;;;;6243720;23;20012;-79
2023/03/21 05:06:14;;;;;;;63.50;21.17;;;9.10;99.90;;;;;;6218534;23;20074;-78
2023/03/21 05:08:40;;;;;;;60.70;20.73;;;9.10;99.90;;;;;;6219901;23;20039;-79
2023/03/21 05:11:06;;;;;;;52.33;20.67;;;9.10;99.90;;;;;;6243819;22;20019;-77
2023/03/21 05:13:32;;;;;;;62.35;21.50;;;9.10;99.90;;;;;;6243702;23;20040;-79
2023/03/21 05:15:57;;;;;;;56.10;19.80;;;9.10;99.90;;;;;;6243725;23;20341;-77
2023/03/21 05:18:26;;;;;;;63.83;22.65;;;9.10;99.90;;;;;;6243779;23;20023;-78
2023/03/21 05:20:53;;;;;;;57.03;20.30;;;9.10;99.90;;;;;;6243779;22;20024;-77
2023/03/21 05:23:19;;;;;;;60.47;22.63;;;9.10;99.90;;;;;;6245338;22;20376;-78
2023/03/21 05:25:45;;;;;;;64.18;23.35;;;9.10;99.90;;;;;;6245817;22;20091;-78
2023/03/21 05:28:11;;;;;;;72.15;24.35;;;9.10;99.90;;;;;;6243755;23;20012;-78
2023/03/21 05:30:37;;;;;;;69.15;23.27;;;9.10;99.90;;;;;;6245863;22;20047;-78
2023/03/21 05:33:03;;;;;;;71.75;25.17;;;9.10;99.90;;;;;;6243770;23;20018;-78
2023/03/21 05:35:29;;;;;;;70.00;24.90;;;9.10;99.90;;;;;;6245642;23;20051;-78
2023/03/21 05:37:55;;;;;;;67.03;23.23;;;9.10;99.90;;;;;;6243587;23;20019;-78
2023/03/21 05:40:21;;;;;;;79.15;26.25;;;9.10;99.90;;;;;;6243752;22;20016;-77
2023/03/21 05:42:47;;;;;;;66.90;22.73;;;9.10;99.90;;;;;;6246274;23;20026;-78
2023/03/21 05:45:13;;;;;;;79.65;26.00;;;9.10;99.90;;;;;;6245405;23;20013;-78
2023/03/21 05:47:39;;;;;;;81.97;26.75;;;9.10;99.90;;;;;;6245510;23;20119;-78
2023/03/21 05:50:05;;;;;;;75.50;26.85;;;9.10;99.90;;;;;;6245784;23;20036;-78
2023/03/21 05:52:31;;;;;;;74.97;25.65;;;9.10;99.90;;;;;;6245294;22;20008;-79
2023/03/21 05:54:57;;;;;;;73.78;25.23;;;9.10;99.90;;;;;;6245376;23;20048;-78
2023/03/21 05:57:23;;;;;;;71.95;27.42;;;9.10;99.90;;;;;;6245328;23;20410;-78
2023/03/21 05:59:49;;;;;;;72.18;24.58;;;9.10;99.90;;;;;;6246891;23;20012;-78
2023/03/21 06:02:14;;;;;;;65.90;24.95;;;9.10;99.90;;;;;;6244830;22;20445;-77
2023/03/21 06:04:40;;;;;;;74.97;26.15;;;9.10;99.90;;;;;;6245734;23;20013;-78
2023/03/21 06:07:06;;;;;;;66.65;23.80;;;9.10;99.90;;;;;;6220409;23;20329;-78
2023/03/21 06:09:32;;;;;;;62.92;21.95;;;9.10;99.90;;;;;;6245161;23;20463;-77
2023/03/21 06:11:58;;;;;;;73.32;25.52;;;9.10;99.90;;;;;;6245129;22;20020;-78
2023/03/21 06:14:24;;;;;;;64.32;24.10;;;9.10;99.90;;;;;;6245108;23;20022;-77
2023/03/21 06:16:52;;;;;;;55.20;20.67;;;9.10;99.90;;;;;;6245185;23;20038;-79
2023/03/21 06:19:18;;;;;;;51.97;20.35;;;9.10;99.90;;;;;;6247207;22;20303;-80
2023/03/21 06:21:44;;;;;;;58.25;21.20;;;9.10;99.90;;;;;;6246537;22;20113;-77
2023/03/21 06:24:10;;;;;;;53.78;21.10;;;9.10;99.90;;;;;;6247054;22;20012;-81
2023/03/21 06:26:36;;;;;;;47.55;19.60;;;9.10;99.90;;;;;;6245006;23;20059;-78
2023/03/21 06:29:01;;;;;;;48.15;19.90;;;9.10;99.90;;;;;;6245034;23;20066;-78
2023/03/21 06:31:27;;;;;;;45.45;19.48;;;9.10;99.90;;;;;;6246553;22;20442;-78
2023/03/21 06:33:53;;;;;;;50.85;19.55;;;9.10;99.90;;;;;;6244923;23;20012;-79
2023/03/21 06:36:19;;;;;;;49.33;16.83;;;9.10;99.90;;;;;;6244909;23;20042;-77
2023/03/21 06:38:45;;;;;;;50.00;19.80;;;9.10;99.90;;;;;;6244939;23;20016;-77
2023/03/21 06:41:11;;;;;;;48.20;18.73;;;9.10;99.90;;;;;;6244823;22;20051;-79
2023/03/21 06:43:37;;;;;;;40.83;17.05;;;9.10;99.90;;;;;;6244808;23;20023;-79
2023/03/21 06:46:03;;;;;;;46.47;18.88;;;9.10;99.90;;;;;;6244998;23;20008;-78
2023/03/21 06:48:28;;;;;;;33.22;14.60;;;9.20;99.90;;;;;;6244698;23;20012;-78
2023/03/21 06:50:55;;;;;;;43.40;17.98;;;9.10;99.90;;;;;;6244668;22;20084;-78
2023/03/21 06:53:23;;;;;;;40.92;17.25;;;9.10;99.90;;;;;;6244339;23;20004;-78
2023/03/21 06:55:50;;;;;;;38.28;16.05;;;9.10;99.90;;;;;;6219378;23;20022;-79
2023/03/21 06:58:16;;;;;;;43.83;17.63;;;9.10;99.90;;;;;;6244611;23;20016;-78
2023/03/21 07:00:43;;;;;;;40.30;16.95;;;9.10;99.90;;;;;;6218982;23;20522;-78
2023/03/21 07:03:10;;;;;;;37.25;16.65;;;9.10;99.90;;;;;;6244394;23;20016;-76
2023/03/21 07:05:36;;;;;;;37.50;16.35;;;9.10;99.90;;;;;;6219117;23;20020;-79
2023/03/21 07:08:02;;;;;;;37.58;16.80;;;9.10;99.90;;;;;;6219182;23;20008;-78
2023/03/21 07:10:28;;;;;;;35.38;16.65;;;9.10;99.90;;;;;;6246083;22;20438;-78
2023/03/21 07:12:57;;;;;;;34.75;16.30;;;9.20;99.90;;;;;;6244596;23;20008;-79
2023/03/21 07:15:22;;;;;;;33.10;16.38;;;9.10;99.90;;;;;;6248851;22;20015;-80
2023/03/21 07:17:48;;;;;;;36.08;15.75;;;9.20;99.90;;;;;;6251183;23;20083;-79
2023/03/21 07:20:14;;;;;;;31.30;15.23;;;9.10;99.90;;;;;;6246007;22;20338;-78
2023/03/21 07:22:40;;;;;;;33.28;15.40;;;9.20;99.90;;;;;;6244449;23;20016;-79
2023/03/21 07:25:06;;;;;;;31.40;14.93;;;9.20;99.90;;;;;;6244260;23;20019;-79
2023/03/21 07:27:32;;;;;;;27.15;13.98;;;9.20;99.90;;;;;;6244475;23;20066;-79
2023/03/21 07:29:59;;;;;;;28.23;13.15;;;9.20;99.90;;;;;;6219844;23;20047;-78
2023/03/21 07:32:28;;;;;;;30.52;14.27;;;9.20;99.90;;;;;;6244357;22;20345;-79
2023/03/21 07:34:54;;;;;;;25.83;13.10;;;9.20;99.90;;;;;;6244664;23;20090;-81
2023/03/21 07:37:20;;;;;;;27.25;13.57;;;9.20;99.90;;;;;;6244383;23;20017;-79
2023/03/21 07:39:46;;;;;;;28.92;13.18;;;9.20;99.90;;;;;;6244385;23;20465;-77
2023/03/21 07:42:12;;;;;;;27.95;13.23;;;9.20;99.90;;;;;;6244213;22;20086;-79
2023/03/21 07:44:37;;;;;;;28.13;14.32;;;9.20;99.90;;;;;;6244337;23;20095;-78
2023/03/21 07:47:05;;;;;;;32.33;15.80;;;9.20;99.90;;;;;;6219016;23;20096;-78
2023/03/21 07:49:31;;;;;;;30.85;14.38;;;9.20;99.90;;;;;;6244352;23;20044;-78
2023/03/21 07:51:58;;;;;;;28.05;14.35;;;9.20;99.90;;;;;;6244243;22;20468;-77
2023/03/21 07:54:24;;;;;;;38.67;17.48;;;9.20;99.90;;;;;;6245797;23;20080;-82
2023/03/21 07:56:50;;;;;;;38.40;17.95;;;9.20;99.90;;;;;;6243991;23;20465;-77
2023/03/21 07:59:15;;;;;;;37.72;18.73;;;9.20;99.90;;;;;;6246405;22;20119;-78
2023/03/21 08:01:41;;;;;;;42.13;20.10;;;9.20;99.90;;;;;;6243938;22;20332;-78
2023/03/21 08:04:07;;;;;;;41.00;19.83;;;9.20;99.90;;;;;;6244261;23;20015;-77
2023/03/21 08:06:33;;;;;;;42.80;20.63;;;9.20;99.90;;;;;;6244917;23;20039;-77
2023/03/21 08:08:58;;;;;;;44.78;22.55;;;9.20;99.90;;;;;;6246306;22;20004;-80
2023/03/21 08:11:24;;;;;;;35.55;17.35;;;9.10;99.90;;;;;;6244142;22;20083;-78
2023/03/21 08:13:50;;;;;;;42.75;20.95;;;9.20;99.90;;;;;;6244318;23;20069;-77
2023/03/21 08:16:16;;;;;;;43.92;21.73;;;9.20;99.90;;;;;;6218966;23;20016;-78
2023/03/21 08:18:42;;;;;;;39.25;20.35;;;9.20;99.90;;;;;;6244117;23;20020;-80
2023/03/21 08:21:08;;;;;;;47.38;22.05;;;9.20;99.90;;;;;;6245978;22;20082;-79
2023/03/21 08:23:35;;;;;;;45.95;22.92;;;9.20;99.90;;;;;;6243911;23;20517;-77
2023/03/21 08:26:00;;;;;;;46.33;22.08;;;9.20;99.90;;;;;;6218526;23;20020;-77
2023/03/21 08:28:26;;;;;;;49.08;21.77;;;9.30;99.90;;;;;;6244042;23;20095;-77
2023/03/21 08:30:52;;;;;;;45.35;20.20;;;9.20;99.90;;;;;;6243947;22;20047;-79
2023/03/21 08:33:18;;;;;;;49.70;23.38;;;9.30;99.90;;;;;;6218960;23;20469;-77
2023/03/21 08:35:44;;;;;;;48.40;24.08;;;9.30;99.90;;;;;;6244088;23;20016;-80
2023/03/21 08:38:11;;;;;;;50.67;24.23;;;9.30;99.90;;;;;;6246003;23;20012;-79
2023/03/21 08:40:37;;;;;;;48.50;24.40;;;9.20;99.90;;;;;;6244022;22;20023;-78
2023/03/21 08:43:03;;;;;;;51.47;24.58;;;9.20;99.90;;;;;;6243609;23;20096;-78
2023/03/21 08:45:28;;;;;;;47.33;24.20;;;9.20;99.90;;;;;;6244054;23;20043;-79
2023/03/21 08:47:55;;;;;;;54.42;22.60;;;9.20;99.90;;;;;;6243988;23;20012;-78
2023/03/21 08:50:23;;;;;;;52.55;26.00;;;9.20;99.90;;;;;;6243668;22;20061;-78
2023/03/21 08:52:49;;;;;;;55.53;26.30;;;9.20;99.90;;;;;;6243778;23;20066;-77
2023/03/21 08:55:16;;;;;;;47.05;23.50;;;9.20;99.90;;;;;;6243879;23;20016;-78
2023/03/21 08:57:43;;;;;;;49.10;23.63;;;9.20;99.90;;;;;;6243482;23;20018;-78
2023/03/21 09:00:13;;;;;;;61.05;25.50;;;9.10;99.90;;;;;;6245229;22;20449;-78
2023/03/21 09:02:40;;;;;;;55.13;23.67;;;9.10;99.90;;;;;;6243758;23;20009;-78
2023/03/21 09:05:07;;;;;;;51.03;25.13;;;9.10;99.90;;;;;;6243753;23;20051;-78
2023/03/21 09:07:35;;;;;;;51.42;24.42;;;9.10;99.90;;;;;;6243637;23;20454;-79
2023/03/21 09:10:05;;;;;;;53.47;25.23;;;9.10;99.90;;;;;;6246955;23;20008;-73
2023/03/21 09:12:32;;;;;;;58.13;25.52;;;9.10;99.90;;;;;;6250634;22;20011;-76
2023/03/21 09:14:58;;;;;;;50.80;24.55;;;9.10;99.90;;;;;;6248091;23;20012;-80
2023/03/21 09:17:24;;;;;;;48.38;22.00;;;9.10;99.90;;;;;;6245021;23;20083;-78
2023/03/21 09:19:50;;;;;;;50.92;25.55;;;9.10;99.90;;;;;;6246020;23;20365;-80
2023/03/21 09:22:22;;;;;;;56.95;24.30;;;9.10;99.90;;;;;;6246304;22;20441;-78
2023/03/21 09:24:49;;;;;;;48.97;23.30;;;9.10;99.90;;;;;;6247491;22;20500;-80
2023/03/21 09:27:21;;;;;;;51.70;22.58;;;9.20;99.90;;;;;;6246197;23;20047;-78
2023/03/21 09:29:50;;;;;;;47.50;23.17;;;9.10;99.90;;;;;;6245650;23;20153;-78
2023/03/21 09:32:17;;;;;;;54.72;22.73;;;9.20;99.90;;;;;;6245792;22;20461;-78
2023/03/21 09:34:43;;;;;;;58.75;24.45;;;9.10;99.90;;;;;;6247464;22;20058;-78
2023/03/21 09:37:12;;;;;;;48.30;21.50;;;9.20;99.90;;;;;;6220405;23;20413;-78
2023/03/21 09:39:39;;;;;;;47.13;22.55;;;9.20;99.90;;;;;;6245913;23;20012;-78
2023/03/21 09:42:30;;;;;;;51.47;22.75;;;9.20;99.90;;;;;;6245559;22;20012;-78
2023/03/21 09:45:20;;;;;;;47.80;22.10;;;9.20;99.90;;;;;;6245623;23;20054;-78
2023/03/21 09:47:55;;;;;;;49.13;21.48;;;9.20;99.90;;;;;;6245473;23;20469;-78
2023/03/21 09:50:36;;;;;;;44.40;21.90;;;9.20;99.90;;;;;;6245397;22;20083;-77
2023/03/21 09:53:04;;;;;;;45.42;20.90;;;9.30;99.90;;;;;;6245851;23;20008;-78
2023/03/21 09:55:33;;;;;;;45.33;20.45;;;9.20;99.90;;;;;;6247234;23;20012;-77
2023/03/21 09:58:27;;;;;;;47.60;20.45;;;9.30;99.90;;;;;;6247583;23;20008;-78
2023/03/21 10:01:09;;;;;;;46.80;19.88;;;9.30;99.90;;;;;;6220108;23;20016;-79
2023/03/21 10:03:35;;;;;;;43.08;20.60;;;9.30;99.90;;;;;;6245441;23;20019;-78
2023/03/21 10:06:11;;;;;;;43.38;20.08;;;9.40;99.90;;;;;;6245191;23;20016;-79
2023/03/21 10:08:43;;;;;;;43.25;20.83;;;9.40;99.90;;;;;;6221301;23;20015;-78
2023/03/21 10:11:09;;;;;;;43.72;21.00;;;9.40;99.90;;;;;;6245199;22;20470;-79
2023/03/21 10:13:43;;;;;;;43.90;20.30;;;9.40;99.90;;;;;;6245613;23;20009;-78
2023/03/21 10:16:18;;;;;;;41.33;19.67;;;9.40;99.90;;;;;;6245280;23;20394;-78
2023/03/21 10:18:45;;;;;;;50.17;21.40;;;9.50;99.90;;;;;;6245175;23;20016;-79
2023/03/21 10:21:21;;;;;;;38.55;19.35;;;9.50;99.90;;;;;;6247191;22;20460;-78
2023/03/21 10:23:50;;;;;;;39.83;18.27;;;9.60;99.90;;;;;;6245157;23;20009;-78
2023/03/21 10:26:19;;;;;;;48.50;21.05;;;9.60;99.90;;;;;;6244878;23;20055;-77
2023/03/21 10:28:45;;;;;;;42.08;18.65;;;9.60;99.90;;;;;;6244348;23;20452;-78
2023/03/21 10:31:17;;;;;;;40.00;18.27;;;9.70;99.90;;;;;;6245009;22;20016;-78
2023/03/21 10:33:45;;;;;;;38.65;20.20;;;9.70;99.90;;;;;;6247301;22;20484;-77
2023/03/21 10:36:32;;;;;;;34.30;17.23;;;9.80;99.90;;;;;;6244780;23;20099;-78
2023/03/21 10:39:07;;;;;;;34.03;16.77;;;9.90;99.90;;;;;;6244885;23;20062;-78
2023/03/21 10:41:33;;;;;;;35.83;16.70;;;9.90;99.90;;;;;;6244967;22;20085;-78
2023/03/21 10:44:13;;;;;;;31.23;15.75;;;9.90;99.90;;;;;;6220148;23;20066;-76
2023/03/21 10:46:53;;;;;;;32.63;16.77;;;9.90;99.90;;;;;;6246218;23;20434;-79
2023/03/21 10:49:20;;;;;;;31.60;16.15;;;10.00;99.90;;;;;;6219380;23;20019;-78
2023/03/21 10:51:49;;;;;;;36.78;15.82;;;10.10;99.90;;;;;;6219300;23;20016;-78
2023/03/21 10:54:18;;;;;;;34.67;15.93;;;10.10;99.90;;;;;;6246453;22;20039;-78
2023/03/21 10:56:55;;;;;;;30.65;13.73;;;10.20;99.90;;;;;;6244784;23;20026;-77
2023/03/21 10:59:22;;;;;;;29.88;14.23;;;10.20;99.90;;;;;;6246372;22;20012;-78
2023/03/21 11:01:51;;;;;;;29.10;14.15;;;10.30;99.90;;;;;;6246027;22;20477;-77
2023/03/21 11:04:21;;;;;;;27.80;14.35;;;10.30;99.90;;;;;;6244509;23;20377;-77
2023/03/21 11:06:55;;;;;;;30.55;14.95;;;10.40;99.90;;;;;;6244477;23;20458;-78
2023/03/21 11:09:24;;;;;;;27.23;14.63;;;10.40;99.90;;;;;;6244692;23;20004;-78
2023/03/21 11:12:02;;;;;;;27.92;13.52;;;10.50;99.90;;;;;;6244638;22;20016;-78
2023/03/21 11:14:38;;;;;;;27.73;13.65;;;10.50;99.90;;;;;;6244660;23;20079;-77
2023/03/21 11:17:22;;;;;;;24.80;12.90;;;10.50;99.90;;;;;;6244603;23;20012;-77
2023/03/21 11:19:58;;;;;;;20.83;11.93;;;10.50;99.90;;;;;;6244489;23;20016;-76
2023/03/21 11:22:28;;;;;;;24.77;12.27;;;10.50;99.90;;;;;;6244572;22;20008;-78
2023/03/21 11:25:06;;;;;;;20.05;11.43;;;10.50;99.90;;;;;;6246105;22;20019;-77
2023/03/21 11:27:33;;;;;;;21.20;11.93;;;10.50;99.90;;;;;;6244652;23;20315;-78
2023/03/21 11:30:01;;;;;;;21.02;11.18;;;10.50;99.90;;;;;;6244552;23;20065;-78
2023/03/21 11:32:34;;;;;;;22.30;11.13;;;10.50;99.90;;;;;;6244238;22;20019;-77
2023/03/21 11:35:13;;;;;;;18.23;9.93;;;10.50;99.90;;;;;;6246927;23;20063;-77
2023/03/21 11:37:46;;;;;;;21.10;8.90;;;10.50;99.90;;;;;;6254460;23;20016;-76
2023/03/21 11:40:25;;;;;;;15.70;8.40;;;10.50;99.90;;;;;;6257040;23;20016;-78
2023/03/21 11:42:56;;;;;;;16.63;8.23;;;10.40;99.90;;;;;;6253996;23;20015;-78
2023/03/21 11:45:23;;;;;;;20.67;9.20;;;10.40;99.90;;;;;;6245217;23;20027;-78
2023/03/21 11:47:52;;;;;;;16.48;8.85;;;10.40;99.90;;;;;;6244354;23;20063;-80
2023/03/21 11:50:41;;;;;;;20.02;8.85;;;10.30;99.90;;;;;;6246334;22;20019;-79
2023/03/21 11:53:07;;;;;;;17.42;8.27;;;10.40;99.90;;;;;;6244166;23;20012;-79
2023/03/21 11:55:56;;;;;;;14.43;8.68;;;10.50;99.90;;;;;;6244222;23;20023;-78
2023/03/21 11:58:44;;;;;;;22.05;7.53;;;10.40;99.90;;;;;;6244825;23;20441;-77
2023/03/21 12:01:26;;;;;;;16.13;8.82;;;10.30;99.90;;;;;;6269987;22;20337;-77
2023/03/21 12:04:10;;;;;;;14.95;7.90;;;10.30;99.90;;;;;;6245939;23;20018;-78
2023/03/21 12:06:51;;;;;;;21.67;8.95;;;10.40;99.90;;;;;;6246286;23;20020;-77
2023/03/21 12:09:42;;;;;;;16.90;8.68;;;10.50;99.90;;;;;;6244218;23;20012;-78
2023/03/21 12:12:34;;;;;;;16.92;8.00;;;10.50;99.90;;;;;;6245946;22;20086;-78
2023/03/21 12:15:02;;;;;;;21.67;9.73;;;10.40;99.90;;;;;;6244423;23;20008;-77
2023/03/21 12:18:09;;;;;;;18.75;9.10;;;10.40;99.90;;;;;;6244059;23;20012;-76
2023/03/21 12:20:41;;;;;;;13.95;8.20;;;10.40;99.90;;;;;;6212999;23;20084;-80
2023/03/21 12:23:21;;;;;;;17.95;9.65;;;10.50;99.90;;;;;;6187743;23;20040;-78
2023/03/21 12:26:02;;;;;;;18.42;8.38;;;10.50;99.90;;;;;;6219354;23;20020;-79
2023/03/21 12:28:52;;;;;;;18.63;9.63;;;10.50;99.90;;;;;;6244332;23;20016;-79
2023/03/21 12:31:43;;;;;;;15.88;8.95;;;10.50;99.90;;;;;;6269628;22;20022;-78
2023/03/21 12:34:24;;;;;;;19.17;8.90;;;10.60;99.90;;;;;;6244344;23;20048;-78
2023/03/21 12:37:02;;;;;;;22.92;9.43;;;10.60;99.90;;;;;;6244318;23;20345;-78
2023/03/21 12:39:38;;;;;;;20.88;9.85;;;10.60;99.90;;;;;;6244149;23;20087;-79
2023/03/21 12:42:38;;;;;;;18.25;8.68;;;10.70;99.90;;;;;;6245499;22;20016;-80
2023/03/21 12:45:21;;;;;;;17.20;8.73;;;10.80;99.90;;;;;;6244042;23;20021;-78
2023/03/21 12:48:16;;;;;;;19.30;9.35;;;10.90;99.90;;;;;;6244075;23;20015;-80
2023/03/21 12:50:45;;;;;;;17.25;9.05;;;11.10;99.90;;;;;;6246118;22;20015;-80
2023/03/21 12:53:40;;;;;;;16.88;9.30;;;11.20;99.90;;;;;;6247236;22;20414;-81
2023/03/21 12:56:10;;;;;;;17.10;8.85;;;11.30;99.90;;;;;;6248299;22;20345;-78
2023/03/21 12:59:09;;;;;;;20.30;8.80;;;11.40;99.90;;;;;;6248374;23;20008;-79
2023/03/21 13:01:37;;;;;;;20.50;10.10;;;11.40;99.90;;;;;;6222332;22;20008;-78
2023/03/21 13:04:26;;;;;;;22.70;9.35;;;11.60;99.90;;;;;;6247736;22;20349;-78
2023/03/21 13:06:54;;;;;;;19.90;9.55;;;11.50;99.90;;;;;;6237774;23;20082;-79
2023/03/21 13:09:40;;;;;;;19.80;9.27;;;11.60;99.90;;;;;;6247565;23;20036;-78
2023/03/21 13:12:30;;;;;;;18.48;9.38;;;11.60;99.90;;;;;;6246095;23;20066;-78
2023/03/21 13:15:18;;;;;;;22.05;9.90;;;11.60;99.90;;;;;;6246107;23;20020;-78
2023/03/21 13:17:51;;;;;;;19.83;9.63;;;11.60;99.90;;;;;;6245874;23;20012;-77
2023/03/21 13:20:33;;;;;;;19.67;9.50;;;11.70;99.90;;;;;;6247543;22;20012;-78
2023/03/21 13:22:58;;;;;;;21.30;9.90;;;11.70;99.90;;;;;;6248463;23;20031;-78
2023/03/21 13:25:25;;;;;;;22.60;9.85;;;11.60;99.90;;;;;;6245972;23;20012;-79
2023/03/21 13:28:00;;;;;;;18.58;8.95;;;11.60;99.90;;;;;;6245948;23;20078;-79
2023/03/21 13:30:27;;;;;;;;;;;11.50;99.90;;;;;;6246440;22;20019;-79
2023/03/21 13:33:12;;;;;;;17.73;8.95;;;11.50;99.90;;;;;;6247795;22;20290;-79
2023/03/21 13:35:41;;;;;;;17.83;9.88;;;11.50;99.90;;;;;;6247629;23;20023;-78
2023/03/21 13:38:15;;;;;;;19.85;10.20;;;11.50;99.90;;;;;;6245718;23;20016;-80
2023/03/21 13:40:47;;;;;;;19.52;9.15;;;11.60;99.90;;;;;;6245914;22;20027;-79
2023/03/21 13:43:50;;;;;;;16.00;8.45;;;11.70;99.90;;;;;;6245848;23;20441;-77
2023/03/21 13:46:25;;;;;;;18.58;10.10;;;11.70;99.90;;;;;;6248166;23;20012;-78
2023/03/21 13:49:07;;;;;;;19.58;9.90;;;11.90;99.90;;;;;;6220437;23;20436;-79
2023/03/21 13:51:36;;;;;;;17.52;9.90;;;12.20;99.90;;;;;;6246037;22;20046;-79
2023/03/21 13:54:07;;;;;;;18.30;9.30;;;12.50;99.90;;;;;;6245810;23;20012;-79
2023/03/21 13:56:45;;;;;;;16.38;8.85;;;12.70;99.90;;;;;;6245330;23;20012;-79
2023/03/21 13:59:15;;;;;;;15.30;8.95;;;12.50;99.90;;;;;;6245484;23;20012;-79
2023/03/21 14:02:16;;;;;;;17.73;9.60;;;12.40;99.90;;;;;;6246841;22;20054;-79
2023/03/21 14:04:42;;;;;;;18.17;9.35;;;12.30;99.90;;;;;;6245357;23;20019;-79
2023/03/21 14:07:25;;;;;;;15.07;8.10;;;12.30;99.90;;;;;;6247377;22;20095;-78
2023/03/21 14:09:54;;;;;;;18.17;9.50;;;12.30;99.90;;;;;;6247458;22;20008;-79
2023/03/21 14:12:23;;;;;;;18.58;9.10;;;12.20;99.90;;;;;;6247231;22;20035;-79
2023/03/21 14:14:53;;;;;;;16.73;8.43;;;12.10;99.90;;;;;;6245380;23;20009;-80
2023/03/21 14:17:23;;;;;;;18.10;9.00;;;12.20;99.90;;;;;;6245498;23;20008;-79
2023/03/21 14:19:54;;;;;;;16.73;9.57;;;12.20;99.90;;;;;;6271559;22;20089;-79
2023/03/21 14:22:19;;;;;;;15.48;9.45;;;12.30;99.90;;;;;;6245959;22;20018;-80
2023/03/21 14:24:56;;;;;;;18.42;10.18;;;12.30;99.90;;;;;;6246440;23;20079;-79
2023/03/21 14:27:24;;;;;;;16.92;9.38;;;12.20;99.90;;;;;;6256511;23;20139;-77
2023/03/21 14:29:52;;;;;;;15.65;9.18;;;12.10;99.90;;;;;;6262983;23;20044;-74
2023/03/21 14:32:21;;;;;;;18.65;10.00;;;12.10;99.90;;;;;;6254146;22;20079;-78
2023/03/21 14:34:48;;;;;;;21.75;10.40;;;12.10;99.90;;;;;;6245516;23;20016;-80
2023/03/21 14:37:36;;;;;;;16.55;9.82;;;12.20;99.90;;;;;;6246190;23;20069;-78
2023/03/21 14:40:08;;;;;;;19.65;9.57;;;12.20;99.90;;;;;;6245481;23;20082;-80
2023/03/21 14:42:35;;;;;;;16.25;9.55;;;12.20;99.90;;;;;;6245765;22;20026;-80
2023/03/21 14:45:29;;;;;;;17.13;9.27;;;12.10;99.90;;;;;;6247251;23;20354;-78
2023/03/21 14:48:07;;;;;;;20.13;9.50;;;12.10;99.90;;;;;;6245450;23;20019;-79
2023/03/21 14:50:44;;;;;;;15.60;9.30;;;12.10;99.90;;;;;;6245126;22;20008;-78
2023/03/21 14:53:18;;;;;;;15.35;8.70;;;12.10;99.90;;;;;;6245295;23;20017;-78
2023/03/21 14:55:52;;;;;;;17.85;10.45;;;12.10;99.90;;;;;;6245450;23;20050;-78
2023/03/21 14:58:18;;;;;;;17.00;9.02;;;12.10;99.90;;;;;;6220379;23;20434;-77
2023/03/21 15:00:48;;;;;;;23.10;10.32;;;12.00;99.90;;;;;;6244660;22;20048;-79
2023/03/21 15:03:19;;;;;;;17.42;10.13;;;12.00;99.90;;;;;;6244964;23;20020;-78
2023/03/21 15:05:45;;;;;;;19.20;10.30;;;12.00;99.90;;;;;;6246525;23;20012;-80
2023/03/21 15:08:11;;;;;;;21.27;10.80;;;12.00;99.90;;;;;;6244731;23;20091;-78
2023/03/21 15:10:37;;;;;;;18.95;9.68;;;12.00;99.90;;;;;;6219414;22;20016;-79
2023/03/21 15:13:19;;;;;;;16.42;9.88;;;12.10;99.90;;;;;;6244872;23;20019;-78
2023/03/21 15:15:46;;;;;;;16.58;9.85;;;12.10;99.90;;;;;;6246283;23;20095;-79
2023/03/21 15:18:18;;;;;;;17.38;9.40;;;12.00;99.90;;;;;;6247763;23;20099;-78
2023/03/21 15:20:47;;;;;;;14.13;8.68;;;12.00;99.90;;;;;;6245288;22;20458;-78
2023/03/21 15:23:28;;;;;;;14.35;8.65;;;12.00;99.90;;;;;;6244723;23;20048;-78
2023/03/21 15:25:54;;;;;;;17.10;8.55;;;12.00;99.90;;;;;;6246492;22;20016;-78
2023/03/21 15:28:20;;;;;;;18.67;8.77;;;12.00;99.90;;;;;;6244876;23;20045;-77
2023/03/21 15:30:51;;;;;;;17.08;8.60;;;12.00;99.90;;;;;;6244678;22;20023;-78
2023/03/21 15:33:17;;;;;;;15.40;8.65;;;11.90;99.90;;;;;;6244599;23;20014;-77
2023/03/21 15:35:52;;;;;;;15.68;9.93;;;11.90;99.90;;;;;;6246585;23;20008;-78
2023/03/21 15:38:43;;;;;;;18.42;8.57;;;12.00;99.90;;;;;;6244622;23;20020;-78
2023/03/21 15:41:18;;;;;;;14.45;8.88;;;11.90;99.90;;;;;;6243996;22;20044;-77
2023/03/21 15:44:07;;;;;;;19.65;9.68;;;11.90;99.90;;;;;;6245283;23;20016;-77
2023/03/21 15:46:33;;;;;;;17.70;9.50;;;11.90;99.90;;;;;;6236055;23;20341;-78
2023/03/21 15:49:26;;;;;;;16.90;8.63;;;11.90;99.90;;;;;;6244361;23;20020;-77
2023/03/21 15:52:14;;;;;;;19.00;9.63;;;11.90;99.90;;;;;;6240964;22;20020;-78
2023/03/21 15:54:54;;;;;;;16.17;8.75;;;11.90;99.90;;;;;;6246343;22;20008;-77
2023/03/21 15:57:31;;;;;;;14.27;8.40;;;11.90;99.90;;;;;;6246294;23;20018;-78
2023/03/21 16:00:23;;;;;;;18.65;9.30;;;11.80;99.90;;;;;;6244736;22;20437;-78
2023/03/21 16:02:56;;;;;;;18.80;9.57;;;11.80;99.90;;;;;;6244177;23;20504;-77
2023/03/21 16:05:24;;;;;;;18.52;9.13;;;11.80;99.90;;;;;;6245750;23;20442;-77
2023/03/21 16:07:50;;;;;;;15.80;9.40;;;11.80;99.90;;;;;;6270097;22;20008;-79
2023/03/21 16:10:31;;;;;;;17.13;9.32;;;11.80;99.90;;;;;;6246107;22;20491;-79
2023/03/21 16:12:57;;;;;;;19.17;9.98;;;11.70;99.90;;;;;;6246596;22;20012;-79
2023/03/21 16:15:25;;;;;;;15.30;8.90;;;11.70;99.90;;;;;;6245159;23;20094;-78
2023/03/21 16:17:57;;;;;;;16.25;9.43;;;11.70;99.90;;;;;;6244508;23;20012;-80
2023/03/21 16:20:31;;;;;;;14.65;9.13;;;11.60;99.90;;;;;;6244682;22;20012;-78
2023/03/21 16:22:57;;;;;;;18.50;10.05;;;11.60;99.90;;;;;;6270289;22;20016;-78
2023/03/21 16:25:23;;;;;;;19.58;8.70;;;11.50;99.90;;;;;;6246160;23;20080;-78
2023/03/21 16:27:49;;;;;;;15.23;9.30;;;11.50;99.90;;;;;;6244940;22;20079;-77
2023/03/21 16:30:18;;;;;;;18.90;9.95;;;11.50;99.90;;;;;;6244132;23;20046;-78
2023/03/21 16:32:44;;;;;;;16.23;8.40;;;11.40;99.90;;;;;;6245464;23;20012;-76
2023/03/21 16:35:10;;;;;;;21.42;11.30;;;11.40;99.90;;;;;;6243908;23;20060;-78
2023/03/21 16:37:36;;;;;;;19.45;11.25;;;11.40;99.90;;;;;;6243713;23;20091;-78
2023/03/21 16:40:04;;;;;;;16.10;9.93;;;11.40;99.90;;;;;;6245554;22;20019;-77
2023/03/21 16:42:30;;;;;;;22.23;10.60;;;11.50;99.90;;;;;;6243751;22;20047;-77
2023/03/21 16:44:56;;;;;;;23.13;11.43;;;11.40;99.90;;;;;;6245238;23;20342;-77
2023/03/21 16:47:22;;;;;;;19.05;10.93;;;11.40;99.90;;;;;;6244684;23;20016;-77
2023/03/21 16:49:48;;;;;;;19.70;10.32;;;11.40;99.90;;;;;;6244047;23;20012;-78
2023/03/21 16:52:14;;;;;;;18.85;10.15;;;11.50;99.90;;;;;;6244004;22;20099;-77
2023/03/21 16:54:41;;;;;;;18.95;8.75;;;11.40;99.90;;;;;;6245138;23;20008;-78
2023/03/21 16:57:17;;;;;;;20.08;10.40;;;11.40;99.90;;;;;;6243586;23;20470;-78